Terminal Aerodrome Forecast
Issued by NWS

Home | Current Version | Previous Version | Text Only | Print | Product List | Glossary On
Versions: 1 2 3 4 5 6 7 8 9 10 11 12 13 14 15 16
000
FTAK31 PAFA 210009 RRA
TAFABT
TAF
PABT 210009Z 2100/2124 VRB09G22KT P6SM -TSRA FEW026CB FEW090 SCT120
     FM210100 34006KT P6SM VCTS FEW050CB BKN120
     FM210600 VRB04KT P6SM VCSH BKN050 BKN100 BKN200
     FM212200 25006KT P6SM FEW050 SCT120=

USA.gov is the U.S. government's official web portal to all federal, state and local government web resources and services.